Time;durP1;ratioP1;P1;durP2;ratioP2;P2;SDS_P1;SDS_P2;PMS_P1;PMS_P2;Temp;Humidity;BMP_temperature;BMP_pressure;BME280_temperature;BME280_humidity;BME280_pressure;Samples;Min_cycle;Max_cycle;Signal;HPM_P1;HPM_P2
2021/04/19 13:57:18;;;;;;;16.70;6.38;;;18.00;40.30;;;;;;4293667;27;20105;-69
2021/04/19 13:59:23;;;;;;;14.07;6.85;;;17.50;41.40;;;;;;4264427;27;20055;-69
2021/04/19 14:01:37;;;;;;;16.70;7.43;;;17.60;41.20;;;;;;4242308;27;20039;-70
2021/04/19 14:03:48;;;;;;;16.20;7.90;;;18.00;40.20;;;;;;4281202;27;20089;-71
2021/04/19 14:05:54;;;;;;;13.57;6.82;;;18.40;39.20;;;;;;4272663;27;20050;-71
2021/04/19 14:08:03;;;;;;;13.02;4.78;;;18.80;40.20;;;;;;4263759;27;20073;-73
2021/04/19 14:10:19;;;;;;;12.63;7.30;;;19.30;40.50;;;;;;4251432;27;20046;-75
2021/04/19 14:12:40;;;;;;;13.38;7.05;;;19.70;37.50;;;;;;4246553;27;20047;-74
2021/04/19 14:14:53;;;;;;;16.65;6.68;;;19.60;36.70;;;;;;4246003;27;20574;-76
2021/04/19 14:16:56;;;;;;;13.18;4.10;;;19.70;37.10;;;;;;4263930;27;20043;-75
2021/04/19 14:19:11;;;;;;;15.27;5.70;;;20.20;38.10;;;;;;4278243;27;20054;-73
2021/04/19 14:21:16;;;;;;;15.32;5.30;;;20.40;36.80;;;;;;4279201;27;20746;-70
2021/04/19 14:23:24;;;;;;;12.00;5.47;;;20.60;36.50;;;;;;4277748;27;20050;-73
2021/04/19 14:25:34;;;;;;;;;;;20.70;34.70;;;;;;4260541;27;20047;-72
2021/04/19 14:27:42;;;;;;;24.10;15.65;;;20.20;35.20;;;;;;4280401;27;20415;-72
2021/04/19 14:29:47;;;;;;;22.75;11.02;;;19.80;35.80;;;;;;4263874;27;20042;-72
2021/04/19 14:31:55;;;;;;;16.33;5.65;;;19.70;35.00;;;;;;4264525;27;20129;-70
2021/04/19 14:33:59;;;;;;;18.55;6.22;;;19.60;35.30;;;;;;4279794;27;20038;-74
2021/04/19 14:36:06;;;;;;;12.55;5.05;;;19.40;35.40;;;;;;4265449;27;20096;-72
2021/04/19 14:38:13;;;;;;;19.42;5.22;;;19.90;37.10;;;;;;4260010;27;20067;-70
2021/04/19 14:40:19;;;;;;;10.15;5.68;;;20.20;35.90;;;;;;4260380;27;20490;-73
2021/04/19 14:42:28;;;;;;;14.98;6.05;;;20.40;36.00;;;;;;4260992;27;20049;-73
2021/04/19 14:44:38;;;;;;;8.77;5.72;;;20.20;35.50;;;;;;4259976;27;20074;-75
2021/04/19 14:46:45;;;;;;;8.80;5.28;;;20.40;35.30;;;;;;4242638;27;20127;-72
2021/04/19 14:48:52;;;;;;;11.48;6.03;;;20.30;35.20;;;;;;4243567;27;20083;-74
2021/04/19 14:51:02;;;;;;;9.10;3.80;;;20.30;34.00;;;;;;4261734;27;20043;-72
2021/04/19 14:53:06;;;;;;;12.30;4.72;;;20.50;36.60;;;;;;4267082;27;20047;-75
2021/04/19 14:55:12;;;;;;;21.10;5.65;;;20.60;35.60;;;;;;4251527;27;20233;-72
2021/04/19 14:57:22;;;;;;;9.15;4.80;;;20.90;34.70;;;;;;4267462;27;20046;-72
2021/04/19 14:59:25;;;;;;;12.73;5.20;;;21.10;35.40;;;;;;4266880;27;20144;-72
2021/04/19 15:01:32;;;;;;;7.80;3.90;;;21.30;35.10;;;;;;4264952;27;20074;-72
2021/04/19 15:03:38;;;;;;;14.80;4.22;;;21.40;35.60;;;;;;4248579;27;20043;-71
2021/04/19 15:05:46;;;;;;;10.07;4.15;;;21.50;35.10;;;;;;4276461;27;20102;-69
2021/04/19 15:07:56;;;;;;;15.23;5.32;;;21.50;35.20;;;;;;4236324;27;20048;-73
2021/04/19 15:10:01;;;;;;;16.52;6.00;;;21.50;34.80;;;;;;4247242;27;20047;-73
2021/04/19 15:12:03;;;;;;;14.30;5.60;;;21.50;35.00;;;;;;4260352;27;20050;-71
2021/04/19 15:14:05;;;;;;;16.08;5.03;;;21.40;34.00;;;;;;4266297;27;20043;-72
2021/04/19 15:16:09;;;;;;;23.75;5.65;;;21.60;35.10;;;;;;4242646;27;20046;-70
2021/04/19 15:18:12;;;;;;;15.98;5.72;;;21.40;33.20;;;;;;4252006;27;20597;-72
2021/04/19 15:20:14;;;;;;;10.80;5.53;;;21.20;33.70;;;;;;4255642;27;20434;-71
2021/04/19 15:22:16;;;;;;;11.13;5.25;;;20.40;33.60;;;;;;4260237;27;20095;-70
2021/04/19 15:24:18;;;;;;;10.00;4.75;;;20.30;34.90;;;;;;4254486;27;20043;-70
2021/04/19 15:26:20;;;;;;;13.25;4.80;;;20.40;34.60;;;;;;4250492;27;20074;-70
2021/04/19 15:28:22;;;;;;;29.02;5.50;;;20.20;35.60;;;;;;4258136;27;20422;-72
2021/04/19 15:30:27;;;;;;;23.25;6.20;;;20.80;36.70;;;;;;4265113;27;21053;-73
2021/04/19 15:32:29;;;;;;;17.50;5.57;;;21.30;35.10;;;;;;4264971;27;20038;-71
2021/04/19 15:34:32;;;;;;;17.77;4.72;;;21.40;33.40;;;;;;4265287;27;20080;-70
2021/04/19 15:36:34;;;;;;;19.92;5.18;;;21.00;35.60;;;;;;4257792;27;20082;-70
2021/04/19 15:38:37;;;;;;;9.65;5.72;;;20.80;34.40;;;;;;4246094;27;20047;-73
2021/04/19 15:40:41;;;;;;;;;;;20.40;34.00;;;;;;4264098;27;20051;-77
2021/04/19 15:42:43;;;;;;;55.20;6.60;;;20.60;36.40;;;;;;4260107;27;19919;-74
2021/04/19 15:44:45;;;;;;;53.30;6.55;;;21.30;36.10;;;;;;4249022;27;20066;-71
2021/04/19 15:46:46;;;;;;;17.58;5.75;;;21.40;34.90;;;;;;4249350;27;20045;-73
2021/04/19 15:48:52;;;;;;;22.55;4.93;;;21.10;34.60;;;;;;4251072;27;20143;-74
2021/04/19 15:50:56;;;;;;;12.85;4.32;;;20.70;34.50;;;;;;4231126;28;20047;-68
2021/04/19 15:52:58;;;;;;;13.80;4.53;;;20.90;34.80;;;;;;4228821;28;20043;-67
2021/04/19 15:55:18;;;;;;;15.27;4.50;;;20.20;34.90;;;;;;4246526;27;20434;-71
2021/04/19 15:57:19;;;;;;;11.45;4.50;;;20.10;35.70;;;;;;4246018;27;20411;-70
2021/04/19 15:59:21;;;;;;;10.25;4.22;;;20.00;35.50;;;;;;4253255;27;20046;-71
2021/04/19 16:01:23;;;;;;;8.73;4.15;;;20.10;35.10;;;;;;4265608;27;20051;-70
2021/04/19 16:03:25;;;;;;;10.05;4.50;;;20.00;35.20;;;;;;4260266;27;20071;-70
2021/04/19 16:05:27;;;;;;;13.73;5.05;;;20.30;34.90;;;;;;4248556;27;20047;-73
2021/04/19 16:07:29;;;;;;;18.02;4.80;;;20.20;35.50;;;;;;4253703;27;20063;-72
2021/04/19 16:09:32;;;;;;;12.15;4.75;;;20.40;36.10;;;;;;4259213;27;20429;-72
2021/04/19 16:11:34;;;;;;;12.07;4.40;;;20.20;34.60;;;;;;4249969;27;20062;-70
2021/04/19 16:13:36;;;;;;;19.80;4.53;;;20.20;36.20;;;;;;4246662;27;20460;-72
2021/04/19 16:15:39;;;;;;;22.40;5.03;;;20.70;35.70;;;;;;4230059;27;20051;-71
2021/04/19 16:17:41;;;;;;;13.32;4.95;;;20.90;35.60;;;;;;4247296;27;20047;-72
2021/04/19 16:19:43;;;;;;;10.75;4.45;;;20.60;33.70;;;;;;4246286;27;20051;-72
2021/04/19 16:21:45;;;;;;;12.45;4.82;;;20.40;34.80;;;;;;4248646;27;20051;-72
2021/04/19 16:23:47;;;;;;;12.32;4.40;;;20.50;34.80;;;;;;4252144;27;20051;-72
2021/04/19 16:25:49;;;;;;;19.13;5.47;;;20.50;35.10;;;;;;4246366;27;20134;-73
2021/04/19 16:27:51;;;;;;;16.40;4.78;;;20.40;34.70;;;;;;4265572;27;20047;-71
2021/04/19 16:29:52;;;;;;;11.75;4.43;;;20.50;35.00;;;;;;4265620;27;20051;-73
2021/04/19 16:31:54;;;;;;;23.88;4.45;;;20.80;35.20;;;;;;4265641;27;20201;-72
2021/04/19 16:33:56;;;;;;;24.63;4.00;;;21.00;35.20;;;;;;4254072;27;20043;-71
2021/04/19 16:35:58;;;;;;;11.35;4.18;;;21.20;36.20;;;;;;4251004;27;20065;-73
2021/04/19 16:37:59;;;;;;;19.98;4.60;;;21.20;34.00;;;;;;4250615;27;20514;-71
2021/04/19 16:40:03;;;;;;;64.13;6.70;;;21.30;35.10;;;;;;4250375;27;20722;-70
2021/04/19 16:42:06;;;;;;;21.08;4.82;;;21.40;35.20;;;;;;4252018;27;20051;-76
2021/04/19 16:44:08;;;;;;;11.35;4.82;;;20.90;35.00;;;;;;4266653;27;20156;-71
2021/04/19 16:46:10;;;;;;;13.43;3.65;;;20.80;33.70;;;;;;4265837;27;20107;-74
2021/04/19 16:48:13;;;;;;;24.25;4.20;;;20.80;35.50;;;;;;4263881;27;20051;-70
2021/04/19 16:50:17;;;;;;;15.23;4.25;;;21.20;35.90;;;;;;4263044;27;20050;-69
2021/04/19 16:52:23;;;;;;;17.38;3.80;;;21.40;35.50;;;;;;4263041;27;20050;-70
2021/04/19 16:54:25;;;;;;;10.50;3.40;;;21.70;35.20;;;;;;4264020;27;20447;-71
2021/04/19 16:56:27;;;;;;;8.80;4.43;;;21.70;33.60;;;;;;4263731;27;20084;-72
2021/04/19 16:58:29;;;;;;;12.60;3.10;;;20.70;33.80;;;;;;4247170;27;20051;-70
2021/04/19 17:00:32;;;;;;;9.10;4.72;;;20.70;35.70;;;;;;4247440;27;20483;-72
2021/04/19 17:02:33;;;;;;;8.00;4.20;;;20.40;34.00;;;;;;4247263;27;20095;-71
2021/04/19 17:04:35;;;;;;;9.63;3.38;;;20.50;34.80;;;;;;4247216;27;20449;-70
2021/04/19 17:06:36;;;;;;;10.23;3.03;;;20.30;34.90;;;;;;4246524;27;20066;-70
2021/04/19 17:08:38;;;;;;;6.75;2.88;;;20.80;35.30;;;;;;4247378;27;20070;-74
2021/04/19 17:10:41;;;;;;;8.25;3.03;;;21.00;34.50;;;;;;4229786;28;20111;-74
2021/04/19 17:12:45;;;;;;;6.88;3.10;;;21.30;35.00;;;;;;4247966;27;20044;-74
2021/04/19 17:14:49;;;;;;;8.82;4.18;;;21.40;34.40;;;;;;4247265;27;20082;-75
2021/04/19 17:16:51;;;;;;;11.00;3.20;;;21.40;33.90;;;;;;4247814;27;20130;-75
2021/04/19 17:18:54;;;;;;;7.10;3.13;;;21.50;34.10;;;;;;4247610;27;20051;-76
2021/04/19 17:20:59;;;;;;;9.88;2.78;;;21.90;34.60;;;;;;4246484;27;20046;-76
2021/04/19 17:23:03;;;;;;;10.25;4.03;;;22.20;33.80;;;;;;4228873;27;20040;-75
2021/04/19 17:25:09;;;;;;;3.95;2.40;;;22.20;33.80;;;;;;4246043;27;20043;-73
2021/04/19 17:27:11;;;;;;;6.30;2.97;;;22.40;33.60;;;;;;4245656;27;20047;-75
2021/04/19 17:29:14;;;;;;;5.28;1.98;;;22.10;33.70;;;;;;4246029;27;20043;-73
2021/04/19 17:31:18;;;;;;;6.00;2.92;;;22.10;34.10;;;;;;4247485;27;20039;-73
2021/04/19 17:33:20;;;;;;;3.30;2.10;;;22.00;34.00;;;;;;4246501;27;20039;-74
2021/04/19 17:35:22;;;;;;;8.75;4.05;;;22.20;34.10;;;;;;4246775;27;20075;-73
2021/04/19 17:37:24;;;;;;;14.80;4.30;;;21.10;34.80;;;;;;4246820;27;20090;-72
2021/04/19 17:39:27;;;;;;;12.57;5.07;;;21.10;35.20;;;;;;4247498;27;20043;-72
